createdAt,value
2022-08-22T00:02:26.244Z,23.79
2022-08-22T00:02:46.585Z,24.40
2022-08-22T00:03:02.740Z,25.69
2022-08-22T00:03:04.030Z,25.54
2022-08-22T00:05:02.800Z,23.67
2022-08-22T00:07:49.256Z,23.56
2022-08-22T00:10:25.655Z,23.54
2022-08-22T00:12:58.316Z,23.54
2022-08-22T00:15:43.334Z,23.46
2022-08-22T00:18:16.318Z,23.42
2022-08-22T00:20:49.559Z,23.47
2022-08-22T00:23:22.938Z,23.56
2022-08-22T00:25:58.806Z,23.60
2022-08-22T00:28:32.153Z,23.64
2022-08-22T00:31:08.072Z,23.71
2022-08-22T00:33:42.402Z,23.73
2022-08-22T00:36:19.285Z,23.64
2022-08-22T00:38:52.382Z,23.64
2022-08-22T00:41:38.826Z,23.63
2022-08-22T00:44:30.780Z,23.65
2022-08-22T00:47:19.876Z,23.66
2022-08-22T00:50:19.405Z,23.64
2022-08-22T00:53:03.488Z,23.59
2022-08-22T00:55:47.275Z,23.56
2022-08-22T00:58:41.677Z,23.58
2022-08-22T01:01:11.763Z,23.60
2022-08-22T01:04:13.470Z,23.61
2022-08-22T01:06:48.449Z,23.59
2022-08-22T01:09:36.373Z,23.56
2022-08-22T01:12:27.673Z,23.56
2022-08-22T01:15:00.890Z,23.57
2022-08-22T01:17:54.220Z,23.59
2022-08-22T01:20:52.474Z,23.55
2022-08-22T01:23:58.483Z,23.49
2022-08-22T01:26:51.084Z,23.43
2022-08-22T01:30:03.049Z,23.38
2022-08-22T01:32:58.757Z,23.38
2022-08-22T01:35:50.605Z,23.35
2022-08-22T01:38:38.225Z,23.33
2022-08-22T01:41:33.009Z,23.36
2022-08-22T01:44:22.641Z,23.39
2022-08-22T01:46:58.557Z,23.30
2022-08-22T01:49:31.554Z,23.30
2022-08-22T01:52:08.001Z,23.29
2022-08-22T01:54:46.468Z,23.33
2022-08-22T01:57:14.582Z,23.37
2022-08-22T01:59:44.482Z,23.36
2022-08-22T02:02:35.004Z,23.37
2022-08-22T02:05:09.209Z,23.37
2022-08-22T02:07:48.158Z,23.36
2022-08-22T02:10:21.328Z,23.36
2022-08-22T02:12:57.165Z,23.35
2022-08-22T02:15:33.499Z,23.33
2022-08-22T02:18:14.478Z,23.29
2022-08-22T02:20:57.403Z,23.31
2022-08-22T02:23:35.865Z,23.28
2022-08-22T02:26:08.282Z,23.27
2022-08-22T02:28:57.136Z,23.16
2022-08-22T02:31:37.174Z,23.03
2022-08-22T02:34:32.113Z,22.91
2022-08-22T02:37:09.032Z,22.88
2022-08-22T02:39:42.490Z,22.94
2022-08-22T02:42:17.861Z,22.97
2022-08-22T02:44:56.529Z,23.01
2022-08-22T02:47:32.725Z,23.05
2022-08-22T02:50:12.719Z,23.08
2022-08-22T02:52:52.633Z,23.11
2022-08-22T02:55:33.532Z,23.08
2022-08-22T02:58:06.801Z,23.09
2022-08-22T03:00:47.353Z,23.03
2022-08-22T03:03:19.459Z,23.04
2022-08-22T03:05:52.229Z,23.06
2022-08-22T03:08:24.247Z,23.03
2022-08-22T03:11:06.182Z,23.06
2022-08-22T03:13:47.801Z,23.10
2022-08-22T03:16:23.366Z,23.07
2022-08-22T03:18:59.118Z,23.01
2022-08-22T03:21:33.921Z,23.02
2022-08-22T03:24:08.029Z,23.06
2022-08-22T03:26:45.105Z,23.07
2022-08-22T03:29:18.906Z,23.09
2022-08-22T03:32:12.772Z,23.08
2022-08-22T03:34:55.221Z,23.10
2022-08-22T03:37:27.934Z,23.05
2022-08-22T03:40:01.269Z,22.97
2022-08-22T03:43:04.602Z,22.88
2022-08-22T03:46:18.303Z,22.80
2022-08-22T03:49:31.562Z,22.73
2022-08-22T03:52:24.437Z,22.70
2022-08-22T03:55:15.746Z,22.68
2022-08-22T03:58:27.452Z,22.65
2022-08-22T04:01:31.762Z,22.56
2022-08-22T04:04:42.435Z,22.47
2022-08-22T04:07:52.519Z,22.45
2022-08-22T04:10:40.004Z,22.46
2022-08-22T04:13:29.958Z,22.45
2022-08-22T04:16:44.877Z,22.52
2022-08-22T04:19:32.912Z,22.61
2022-08-22T04:22:20.089Z,22.67
2022-08-22T04:24:57.941Z,22.68
2022-08-22T04:27:31.645Z,22.70
2022-08-22T04:30:06.077Z,22.68
2022-08-22T04:32:38.417Z,22.70
2022-08-22T04:35:11.278Z,22.65
2022-08-22T04:37:46.954Z,22.55
2022-08-22T04:40:22.320Z,22.51
2022-08-22T04:42:54.097Z,22.47
2022-08-22T04:45:27.417Z,22.48
2022-08-22T04:48:04.926Z,22.43
2022-08-22T04:50:43.121Z,22.41
2022-08-22T04:53:23.512Z,22.41
2022-08-22T04:56:05.368Z,22.46
2022-08-22T04:58:44.907Z,22.52
2022-08-22T05:01:17.817Z,22.56
2022-08-22T05:03:52.976Z,22.67
2022-08-22T05:06:23.570Z,22.70
2022-08-22T05:08:53.779Z,22.68
2022-08-22T05:11:23.771Z,22.65
2022-08-22T05:13:55.365Z,22.68
2022-08-22T05:16:28.463Z,22.82
2022-08-22T05:19:02.965Z,22.87
2022-08-22T05:21:34.176Z,22.89
2022-08-22T05:24:05.365Z,22.91
2022-08-22T05:26:38.098Z,22.95
2022-08-22T05:29:10.995Z,22.93
2022-08-22T05:31:43.739Z,22.92
2022-08-22T05:34:17.245Z,23.03
2022-08-22T05:36:49.910Z,23.09
2022-08-22T05:39:20.481Z,23.20
2022-08-22T05:41:49.285Z,23.34
2022-08-22T05:44:21.957Z,23.37
2022-08-22T05:46:53.937Z,23.38
2022-08-22T05:49:29.983Z,23.40
2022-08-22T05:52:14.966Z,23.38
2022-08-22T05:54:51.254Z,23.37
2022-08-22T05:57:26.498Z,23.41
2022-08-22T06:00:01.302Z,23.37
2022-08-22T06:02:34.857Z,23.36
2022-08-22T06:05:11.719Z,23.31
2022-08-22T06:07:43.740Z,23.33
2022-08-22T06:10:23.010Z,23.40
2022-08-22T06:12:58.125Z,23.44
2022-08-22T06:15:34.697Z,23.43
2022-08-22T06:18:07.439Z,23.42
2022-08-22T06:20:39.745Z,23.54
2022-08-22T06:23:08.458Z,23.56
2022-08-22T06:25:39.093Z,23.63
2022-08-22T06:28:08.881Z,23.78
2022-08-22T06:30:39.600Z,23.92
2022-08-22T06:33:12.516Z,24.06
2022-08-22T06:36:03.035Z,24.28
2022-08-22T06:38:35.061Z,24.55
2022-08-22T06:41:06.853Z,24.90
2022-08-22T06:43:38.731Z,25.18
2022-08-22T06:46:06.729Z,25.33
2022-08-22T06:48:36.269Z,25.35
2022-08-22T06:51:08.747Z,25.46
2022-08-22T06:53:47.953Z,25.38
2022-08-22T06:56:20.324Z,25.25
2022-08-22T06:58:50.508Z,25.19
2022-08-22T07:01:22.395Z,25.20
2022-08-22T07:03:52.713Z,25.32
2022-08-22T07:06:29.874Z,25.37
2022-08-22T07:08:57.885Z,25.51
2022-08-22T07:11:28.541Z,25.63
2022-08-22T07:13:59.789Z,25.66
2022-08-22T07:16:33.132Z,25.67
2022-08-22T07:19:01.858Z,25.80
2022-08-22T07:21:41.326Z,25.80
2022-08-22T07:24:11.094Z,25.81
2022-08-22T07:26:48.015Z,25.88
2022-08-22T07:29:24.310Z,26.02
2022-08-22T07:32:04.486Z,26.30
2022-08-22T07:34:43.461Z,26.55
2022-08-22T07:37:17.773Z,26.69
2022-08-22T07:39:53.723Z,27.04
2022-08-22T07:42:28.549Z,27.41
2022-08-22T07:45:07.550Z,27.91
2022-08-22T07:47:55.942Z,28.23
2022-08-22T07:50:29.365Z,28.36
2022-08-22T07:53:09.248Z,28.40
2022-08-22T07:55:48.375Z,28.54
2022-08-22T07:58:18.400Z,28.49
2022-08-22T08:00:47.198Z,28.22
2022-08-22T08:03:15.239Z,28.32
2022-08-22T08:05:44.873Z,28.34
2022-08-22T08:08:22.325Z,28.23
2022-08-22T08:10:51.615Z,28.17
2022-08-22T08:13:28.119Z,28.01
2022-08-22T08:15:55.438Z,28.13
2022-08-22T08:18:26.028Z,28.36
2022-08-22T08:20:57.034Z,28.80
2022-08-22T08:23:29.241Z,29.18
2022-08-22T08:26:02.827Z,29.30
2022-08-22T08:28:37.738Z,29.39
2022-08-22T08:31:20.625Z,29.80
2022-08-22T08:33:50.298Z,30.25
2022-08-22T08:36:33.418Z,30.55
2022-08-22T08:39:12.684Z,30.56
2022-08-22T08:42:04.198Z,30.55
2022-08-22T08:45:10.048Z,30.30
2022-08-22T08:47:49.134Z,30.16
2022-08-22T08:50:30.201Z,30.36
2022-08-22T08:53:19.420Z,30.68
2022-08-22T08:55:58.538Z,30.93
2022-08-22T08:58:43.402Z,31.34
2022-08-22T09:01:38.936Z,31.76
2022-08-22T09:04:34.817Z,32.06
2022-08-22T09:07:28.073Z,31.97
2022-08-22T09:10:18.921Z,31.68
2022-08-22T09:13:12.258Z,31.62
2022-08-22T09:16:11.954Z,31.76
2022-08-22T09:19:01.337Z,32.03
2022-08-22T09:21:50.922Z,32.47
2022-08-22T09:24:42.627Z,32.46
2022-08-22T09:27:17.449Z,32.27
2022-08-22T09:29:54.923Z,32.08
2022-08-22T09:32:36.193Z,32.02
2022-08-22T09:35:09.082Z,32.20
2022-08-22T09:37:46.569Z,32.54
2022-08-22T09:42:59.366Z,32.97
2022-08-22T09:45:50.843Z,33.34
2022-08-22T09:48:42.494Z,33.53
2022-08-22T09:51:33.167Z,33.82
2022-08-22T09:54:20.850Z,33.80
2022-08-22T09:56:56.975Z,33.49
2022-08-22T09:59:34.431Z,33.23
2022-08-22T10:02:15.477Z,33.12
2022-08-22T10:04:47.632Z,33.08
2022-08-22T10:07:32.318Z,33.42
2022-08-22T10:10:08.887Z,33.65
2022-08-22T10:12:47.777Z,34.02
2022-08-22T10:15:22.557Z,34.16
2022-08-22T10:18:14.718Z,34.00
2022-08-22T10:20:50.849Z,33.84
2022-08-22T10:23:23.345Z,33.74
2022-08-22T10:25:54.930Z,33.87
2022-08-22T10:28:32.317Z,33.79
2022-08-22T10:31:22.574Z,33.59
2022-08-22T10:34:01.022Z,33.44
2022-08-22T10:36:36.078Z,33.44
2022-08-22T10:39:09.531Z,33.35
2022-08-22T10:41:54.721Z,33.41
2022-08-22T10:44:30.039Z,33.33
2022-08-22T10:47:04.102Z,33.60
2022-08-22T10:49:37.633Z,34.01
2022-08-22T10:52:15.355Z,34.25
2022-08-22T10:54:48.865Z,34.46
2022-08-22T10:57:33.077Z,34.55
2022-08-22T11:00:09.137Z,34.69
2022-08-22T11:02:44.902Z,34.79
2022-08-22T11:05:38.065Z,34.76
2022-08-22T11:08:33.084Z,35.02
2022-08-22T11:11:09.332Z,35.38
2022-08-22T11:13:43.580Z,35.72
2022-08-22T11:16:17.352Z,35.96
2022-08-22T11:19:14.950Z,36.06
2022-08-22T11:21:59.649Z,36.34
2022-08-22T11:25:11.395Z,36.43
2022-08-22T11:27:48.295Z,36.10
2022-08-22T11:30:20.601Z,35.83
2022-08-22T11:33:13.752Z,35.78
2022-08-22T11:35:47.334Z,35.53
2022-08-22T11:38:30.591Z,35.32
2022-08-22T11:41:05.634Z,35.25
2022-08-22T11:43:43.753Z,35.31
2022-08-22T11:46:29.693Z,35.64
2022-08-22T11:49:09.176Z,35.85
2022-08-22T11:51:57.386Z,36.00
2022-08-22T11:54:33.408Z,35.88
2022-08-22T11:57:06.670Z,35.66
2022-08-22T11:59:55.245Z,35.55
2022-08-22T12:02:31.233Z,35.35
2022-08-22T12:05:07.072Z,35.25
2022-08-22T12:07:39.732Z,35.39
2022-08-22T12:10:13.482Z,35.70
2022-08-22T12:12:51.552Z,35.78
2022-08-22T12:15:22.513Z,35.47
2022-08-22T12:18:20.142Z,35.26
2022-08-22T12:21:17.408Z,35.12
2022-08-22T12:24:19.301Z,35.15
2022-08-22T12:27:13.548Z,34.95
2022-08-22T12:30:05.479Z,35.39
2022-08-22T12:33:23.186Z,35.50
2022-08-22T12:36:04.813Z,35.49
2022-08-22T12:38:46.762Z,35.52
2022-08-22T12:41:46.837Z,35.90
2022-08-22T12:44:28.291Z,36.25
2022-08-22T12:47:19.134Z,36.58
2022-08-22T12:50:04.059Z,36.83
2022-08-22T12:52:46.081Z,36.70
2022-08-22T12:55:55.125Z,36.73
2022-08-22T12:58:34.560Z,36.78
2022-08-22T13:01:07.146Z,36.74
2022-08-22T13:03:40.428Z,36.39
2022-08-22T13:06:42.203Z,36.26
2022-08-22T13:09:20.838Z,36.07
2022-08-22T13:12:00.697Z,35.69
2022-08-22T13:14:34.101Z,35.42
2022-08-22T13:17:10.292Z,35.09
2022-08-22T13:20:02.062Z,34.93
2022-08-22T13:22:32.997Z,34.84
2022-08-22T13:25:05.040Z,34.79
2022-08-22T13:27:40.780Z,34.82
2022-08-22T13:30:21.123Z,34.76
2022-08-22T13:32:53.541Z,34.82
2022-08-22T13:35:24.759Z,34.70
2022-08-22T13:37:55.336Z,34.49
2022-08-22T13:40:30.256Z,34.16
2022-08-22T13:43:05.726Z,33.82
2022-08-22T13:45:36.220Z,33.63
2022-08-22T13:48:12.885Z,33.51
2022-08-22T13:50:54.715Z,33.43
2022-08-22T13:53:29.423Z,33.52
2022-08-22T13:56:03.218Z,33.64
2022-08-22T13:58:38.374Z,33.69
2022-08-22T14:01:43.301Z,33.80
2022-08-22T14:04:32.133Z,33.79
2022-08-22T14:07:24.244Z,33.76
2022-08-22T14:09:56.104Z,33.75
2022-08-22T14:12:26.221Z,33.74
2022-08-22T14:14:57.098Z,33.74
2022-08-22T14:17:30.834Z,33.75
2022-08-22T14:20:06.928Z,33.73
2022-08-22T14:22:40.933Z,33.66
2022-08-22T14:25:17.005Z,33.60
2022-08-22T14:27:59.323Z,33.53
2022-08-22T14:30:31.708Z,33.43
2022-08-22T14:33:11.958Z,33.34
2022-08-22T14:35:52.941Z,33.24
2022-08-22T14:38:29.811Z,33.15
2022-08-22T14:41:05.481Z,33.08
2022-08-22T14:43:55.215Z,33.06
2022-08-22T14:46:27.522Z,33.03
2022-08-22T14:49:24.861Z,32.91
2022-08-22T14:52:00.210Z,32.82
2022-08-22T14:54:29.356Z,32.72
2022-08-22T14:56:59.441Z,32.67
2022-08-22T14:59:39.134Z,32.62
2022-08-22T15:02:09.632Z,32.54
2022-08-22T15:04:40.302Z,32.52
2022-08-22T15:07:12.947Z,32.48
2022-08-22T15:09:43.961Z,32.44
2022-08-22T15:12:23.780Z,32.41
2022-08-22T15:14:54.709Z,32.38
2022-08-22T15:17:35.831Z,32.33
2022-08-22T15:20:11.181Z,32.29
2022-08-22T15:22:45.591Z,32.26
2022-08-22T15:25:16.658Z,32.21
2022-08-22T15:27:48.804Z,32.18
2022-08-22T15:30:20.423Z,32.14
2022-08-22T15:32:49.187Z,32.08
2022-08-22T15:35:27.802Z,32.04
2022-08-22T15:38:02.476Z,31.99
2022-08-22T15:40:40.401Z,31.93
2022-08-22T15:43:34.901Z,31.92
2022-08-22T15:46:18.618Z,31.87
2022-08-22T15:48:57.106Z,31.88
2022-08-22T15:51:39.916Z,31.87
2022-08-22T15:54:24.193Z,31.83
2022-08-22T15:57:06.457Z,31.78
2022-08-22T15:59:47.726Z,31.65
2022-08-22T16:02:34.935Z,31.56
2022-08-22T16:05:26.245Z,31.48
2022-08-22T16:08:02.932Z,31.41
2022-08-22T16:10:37.746Z,31.37
2022-08-22T16:13:16.072Z,31.33
2022-08-22T16:16:00.522Z,31.26
2022-08-22T16:19:05.310Z,31.19
2022-08-22T16:22:10.701Z,31.10
2022-08-22T16:24:57.672Z,31.07
2022-08-22T16:27:27.359Z,30.93
2022-08-22T16:30:07.033Z,30.85
2022-08-22T16:32:35.108Z,30.78
2022-08-22T16:35:02.376Z,30.72
2022-08-22T16:37:47.110Z,30.67
2022-08-22T16:40:20.479Z,30.59
2022-08-22T16:43:09.568Z,30.52
2022-08-22T16:45:39.369Z,30.44
2022-08-22T16:48:32.387Z,30.36
2022-08-22T16:51:14.162Z,30.26
2022-08-22T16:54:10.549Z,30.17
2022-08-22T16:56:56.890Z,30.08
2022-08-22T16:59:38.265Z,29.97
2022-08-22T17:02:32.404Z,29.87
2022-08-22T17:05:16.905Z,29.79
2022-08-22T17:07:59.197Z,29.73
2022-08-22T17:10:49.801Z,29.67
2022-08-22T17:13:26.556Z,29.58
2022-08-22T17:16:15.652Z,29.51
2022-08-22T17:18:50.506Z,29.48
2022-08-22T17:21:25.847Z,29.42
2022-08-22T17:24:01.332Z,29.36
2022-08-22T17:26:41.030Z,29.31
2022-08-22T17:29:16.069Z,29.24
2022-08-22T17:31:50.790Z,29.18
2022-08-22T17:34:34.430Z,29.13
2022-08-22T17:37:09.164Z,29.07
2022-08-22T17:39:55.866Z,29.01
2022-08-22T17:42:39.492Z,28.91
2022-08-22T17:45:16.573Z,28.87
2022-08-22T17:47:49.802Z,28.81
2022-08-22T17:50:25.537Z,28.76
2022-08-22T17:52:59.976Z,28.69
2022-08-22T17:55:29.166Z,28.66
2022-08-22T17:58:01.210Z,28.55
2022-08-22T18:00:31.596Z,28.49
2022-08-22T18:03:07.045Z,28.45
2022-08-22T18:05:39.909Z,28.45
2022-08-22T18:08:37.360Z,28.46
2022-08-22T18:11:09.974Z,28.47
2022-08-22T18:13:42.416Z,28.46
2022-08-22T18:16:20.185Z,28.45
2022-08-22T18:18:59.850Z,28.42
2022-08-22T18:21:32.171Z,28.37
2022-08-22T18:24:01.609Z,28.39
2022-08-22T18:26:35.045Z,28.41
2022-08-22T18:29:10.805Z,28.42
2022-08-22T18:31:47.917Z,28.45
2022-08-22T18:34:31.767Z,28.43
2022-08-22T18:37:04.230Z,28.41
2022-08-22T18:39:42.624Z,28.40
2022-08-22T18:42:18.381Z,28.38
2022-08-22T18:44:45.677Z,28.33
2022-08-22T18:47:16.828Z,28.28
2022-08-22T18:49:54.342Z,28.23
2022-08-22T18:52:34.511Z,28.18
2022-08-22T18:55:40.122Z,28.15
2022-08-22T18:58:31.147Z,28.14
2022-08-22T19:01:08.818Z,28.04
2022-08-22T19:03:49.702Z,27.99
2022-08-22T19:06:54.758Z,27.93
2022-08-22T19:09:47.393Z,27.87
2022-08-22T19:12:35.605Z,27.79
2022-08-22T19:15:28.728Z,27.74
2022-08-22T19:18:18.094Z,27.68
2022-08-22T19:21:37.680Z,27.63
2022-08-22T19:24:09.679Z,27.58
2022-08-22T19:26:43.250Z,27.51
2022-08-22T19:29:47.535Z,27.44
2022-08-22T19:32:48.239Z,27.33
2022-08-22T19:35:20.253Z,27.20
2022-08-22T19:37:53.094Z,26.96
2022-08-22T19:40:50.273Z,26.71
2022-08-22T19:43:37.161Z,26.52
2022-08-22T19:46:08.433Z,26.45
2022-08-22T19:48:45.697Z,26.46
2022-08-22T19:51:25.054Z,26.43
2022-08-22T19:54:16.247Z,26.42
2022-08-22T19:57:01.092Z,26.45
2022-08-22T19:59:40.790Z,26.47
2022-08-22T20:02:31.895Z,26.33
2022-08-22T20:05:27.684Z,26.30
2022-08-22T20:08:07.498Z,26.31
2022-08-22T20:10:42.825Z,26.30
2022-08-22T20:13:20.827Z,26.25
2022-08-22T20:16:16.783Z,26.21
2022-08-22T20:19:13.301Z,26.18
2022-08-22T20:21:46.081Z,26.19
2022-08-22T20:24:16.429Z,26.15
2022-08-22T20:27:12.106Z,26.15
2022-08-22T20:29:42.013Z,26.12
2022-08-22T20:32:09.371Z,26.11
2022-08-22T20:34:39.497Z,25.98
2022-08-22T20:37:29.553Z,25.84
2022-08-22T20:40:00.982Z,25.84
2022-08-22T20:42:33.330Z,25.87
2022-08-22T20:45:12.038Z,25.82
2022-08-22T20:47:41.177Z,25.82
2022-08-22T20:50:12.027Z,25.83
2022-08-22T20:52:51.833Z,25.88
2022-08-22T20:55:27.350Z,25.88
2022-08-22T20:58:01.010Z,25.84
2022-08-22T21:00:35.655Z,25.71
2022-08-22T21:03:06.835Z,25.52
2022-08-22T21:05:38.599Z,25.42
2022-08-22T21:08:10.840Z,25.47
2022-08-22T21:10:58.039Z,25.49
2022-08-22T21:13:27.073Z,25.52
2022-08-22T21:15:57.861Z,25.52
2022-08-22T21:18:28.805Z,25.48
2022-08-22T21:21:07.051Z,25.48
2022-08-22T21:23:38.464Z,25.50
2022-08-22T21:26:08.499Z,25.48
2022-08-22T21:28:39.852Z,25.46
2022-08-22T21:31:14.799Z,25.42
2022-08-22T21:33:45.030Z,25.33
2022-08-22T21:36:16.831Z,25.12
2022-08-22T21:38:50.836Z,25.09
2022-08-22T21:41:25.179Z,25.14
2022-08-22T21:43:53.955Z,25.15
2022-08-22T21:46:28.816Z,25.16
2022-08-22T21:48:59.897Z,25.08
2022-08-22T21:51:40.713Z,24.96
2022-08-22T21:54:33.680Z,24.92
2022-08-22T21:57:16.396Z,24.71
2022-08-22T21:59:52.068Z,24.62
2022-08-22T22:02:35.314Z,24.58
2022-08-22T22:05:08.170Z,24.61
2022-08-22T22:07:37.457Z,24.64
2022-08-22T22:10:08.328Z,24.65
2022-08-22T22:12:35.680Z,24.66
2022-08-22T22:15:03.803Z,24.61
2022-08-22T22:17:32.354Z,24.58
2022-08-22T22:19:59.609Z,24.59
2022-08-22T22:22:26.911Z,24.60
2022-08-22T22:24:54.209Z,24.62
2022-08-22T22:27:21.481Z,24.65
2022-08-22T22:29:48.801Z,24.65
2022-08-22T22:32:15.962Z,24.63
2022-08-22T22:34:44.600Z,24.57
2022-08-22T22:37:15.541Z,24.55
2022-08-22T22:39:43.082Z,24.52
2022-08-22T22:42:10.298Z,24.49
2022-08-22T22:44:37.555Z,24.45
2022-08-22T22:47:05.054Z,24.43
2022-08-22T22:49:33.005Z,24.41
2022-08-22T22:52:02.038Z,24.39
2022-08-22T22:54:30.622Z,24.35
2022-08-22T22:57:01.357Z,24.29
2022-08-22T22:59:29.013Z,24.23
2022-08-22T23:02:02.624Z,24.21
2022-08-22T23:04:31.542Z,24.14
2022-08-22T23:06:58.990Z,24.05
2022-08-22T23:09:38.080Z,24.01
2022-08-22T23:12:12.517Z,23.94
2022-08-22T23:14:39.750Z,23.86
2022-08-22T23:17:07.125Z,23.77
2022-08-22T23:19:35.005Z,23.78
2022-08-22T23:22:02.198Z,23.80
2022-08-22T23:24:31.941Z,23.79
2022-08-22T23:26:59.546Z,23.82
2022-08-22T23:29:27.151Z,23.82
2022-08-22T23:31:57.333Z,23.83
2022-08-22T23:34:27.439Z,23.81
2022-08-22T23:36:58.258Z,23.81
2022-08-22T23:39:27.113Z,23.82
2022-08-22T23:41:55.971Z,23.81
2022-08-22T23:44:26.156Z,23.78
2022-08-22T23:46:53.697Z,23.77
2022-08-22T23:49:21.303Z,23.75
2022-08-22T23:51:49.430Z,23.74
2022-08-22T23:54:17.875Z,23.74
2022-08-22T23:56:47.010Z,23.71
2022-08-22T23:59:17.682Z,23.72
